Time;durP1;ratioP1;P1;durP2;ratioP2;P2;SDS_P1;SDS_P2;PMS_P1;PMS_P2;Temp;Humidity;BMP_temperature;BMP_pressure;BME280_temperature;BME280_humidity;BME280_pressure;Samples;Min_cycle;Max_cycle;Signal;HPM_P1;HPM_P2
2022/08/04 00:00:46;;;;;;;8.73;2.35;;;24.50;99.90;;;;;;4181176;28;20219;-94
2022/08/04 00:03:22;;;;;;;13.85;2.80;;;24.50;99.90;;;;;;4181175;28;20611;-87
2022/08/04 00:05:38;;;;;;;9.30;2.40;;;24.50;99.90;;;;;;4197623;28;20181;-87
2022/08/04 00:07:42;;;;;;;10.20;2.75;;;24.50;99.90;;;;;;4197875;28;20606;-87
2022/08/04 00:09:57;;;;;;;12.07;3.20;;;24.50;99.90;;;;;;4197524;28;20168;-87
2022/08/04 00:12:02;;;;;;;13.95;3.00;;;24.50;99.90;;;;;;4180964;28;20631;-88
2022/08/04 00:14:05;;;;;;;12.20;3.00;;;24.50;99.90;;;;;;4197860;28;20179;-87
2022/08/04 00:16:08;;;;;;;9.75;2.78;;;24.60;99.90;;;;;;4197726;28;20285;-96
2022/08/04 00:18:15;;;;;;;11.57;3.05;;;24.60;99.90;;;;;;4198271;28;20193;-87
2022/08/04 00:20:18;;;;;;;7.35;2.63;;;24.60;99.90;;;;;;4197202;28;20163;-87
2022/08/04 00:22:24;;;;;;;8.73;2.95;;;24.60;99.90;;;;;;4197892;28;20598;-87
2022/08/04 00:24:29;;;;;;;8.70;2.40;;;24.40;99.90;;;;;;4181026;28;20183;-87
2022/08/04 00:26:30;;;;;;;7.15;3.10;;;24.40;99.90;;;;;;4197594;28;20217;-87
2022/08/04 00:28:31;;;;;;;9.65;2.90;;;24.30;99.90;;;;;;4181256;28;20172;-86
2022/08/04 00:30:32;;;;;;;11.63;2.97;;;24.30;99.90;;;;;;4181628;28;20205;-87
2022/08/04 00:32:34;;;;;;;9.48;2.97;;;24.20;99.90;;;;;;4181259;28;20202;-87
2022/08/04 00:34:36;;;;;;;6.88;2.85;;;24.20;99.90;;;;;;4182078;28;20545;-87
2022/08/04 00:36:37;;;;;;;10.07;3.08;;;24.10;99.90;;;;;;4180483;28;20175;-87
2022/08/04 00:38:41;;;;;;;10.38;3.20;;;24.20;99.90;;;;;;4183106;28;20263;-87
2022/08/04 00:40:42;;;;;;;10.50;3.20;;;24.40;99.90;;;;;;4184589;28;20219;-87
2022/08/04 00:43:27;;;;;;;9.48;2.80;;;24.40;99.90;;;;;;4201832;28;20206;-87
2022/08/04 00:45:52;;;;;;;10.77;3.10;;;24.50;99.90;;;;;;4185211;28;20187;-87
2022/08/04 00:48:30;;;;;;;11.32;3.25;;;24.40;99.90;;;;;;4183647;28;20180;-87
2022/08/04 00:50:57;;;;;;;11.55;2.70;;;24.30;99.90;;;;;;4200267;28;20611;-87
2022/08/04 00:53:08;;;;;;;13.20;3.22;;;24.30;99.90;;;;;;4185176;28;20196;-87
2022/08/04 00:55:40;;;;;;;13.25;2.95;;;24.30;99.90;;;;;;4185013;28;20167;-87
2022/08/04 00:58:25;;;;;;;10.52;3.30;;;24.40;99.90;;;;;;4183610;28;20168;-87
2022/08/04 01:00:31;;;;;;;8.55;3.35;;;24.40;99.90;;;;;;4180585;28;20699;-87
2022/08/04 01:02:50;;;;;;;12.23;3.33;;;24.40;99.90;;;;;;4184186;28;20241;-87
2022/08/04 01:05:12;;;;;;;10.68;3.10;;;24.40;99.90;;;;;;4201558;28;20585;-87
2022/08/04 01:07:55;;;;;;;13.10;3.05;;;24.40;99.90;;;;;;4200604;28;20170;-87
2022/08/04 01:10:24;;;;;;;10.25;3.30;;;24.40;99.90;;;;;;4184037;28;20167;-87
2022/08/04 01:12:59;;;;;;;9.93;3.00;;;24.40;99.90;;;;;;4184265;28;20257;-87
2022/08/04 01:15:16;;;;;;;10.65;3.13;;;24.30;99.90;;;;;;4201120;28;20166;-87
2022/08/04 01:17:27;;;;;;;11.18;2.97;;;24.20;99.90;;;;;;4200689;28;20183;-87
2022/08/04 01:20:01;;;;;;;10.77;3.22;;;24.20;99.90;;;;;;4199997;28;20179;-87
2022/08/04 01:22:38;;;;;;;12.95;3.50;;;24.20;99.90;;;;;;4183798;28;20215;-87
2022/08/04 01:25:09;;;;;;;8.65;2.85;;;24.20;99.90;;;;;;4183191;28;20179;-87
2022/08/04 01:27:22;;;;;;;7.35;3.03;;;24.20;99.90;;;;;;4200722;28;20225;-87
2022/08/04 01:29:26;;;;;;;12.07;3.42;;;24.00;99.90;;;;;;4183896;28;20175;-86
2022/08/04 01:31:53;;;;;;;9.38;3.28;;;23.90;99.90;;;;;;4200491;28;20163;-87
2022/08/04 01:33:57;;;;;;;8.15;3.22;;;23.90;99.90;;;;;;4180795;28;20198;-87
2022/08/04 01:36:05;;;;;;;8.77;3.65;;;23.80;99.90;;;;;;4183656;28;20179;-87
2022/08/04 01:38:23;;;;;;;12.35;3.60;;;23.70;99.90;;;;;;4200531;28;20311;-87
2022/08/04 01:40:26;;;;;;;10.38;3.42;;;23.70;99.90;;;;;;4200482;28;20174;-87
2022/08/04 01:42:29;;;;;;;6.63;2.75;;;23.80;99.90;;;;;;4199821;28;20221;-88
2022/08/04 01:44:32;;;;;;;15.55;3.53;;;23.70;99.90;;;;;;4201139;28;20531;-93
2022/08/04 01:46:34;;;;;;;14.00;3.35;;;23.70;99.90;;;;;;4200269;28;20255;-87
2022/08/04 01:48:37;;;;;;;9.27;3.40;;;23.70;99.90;;;;;;4185173;28;20172;-87
2022/08/04 01:50:42;;;;;;;10.00;3.92;;;23.60;99.90;;;;;;4199314;28;20559;-88
2022/08/04 01:52:43;;;;;;;12.93;4.93;;;23.50;99.90;;;;;;4182748;28;20268;-88
2022/08/04 01:54:46;;;;;;;18.52;10.63;;;23.50;99.90;;;;;;4200053;28;20612;-94
2022/08/04 01:56:49;;;;;;;41.60;24.02;;;23.50;99.90;;;;;;4217641;28;20265;-87
2022/08/04 01:58:50;;;;;;;38.00;26.55;;;23.40;99.90;;;;;;4200803;28;20659;-94
2022/08/04 02:01:02;;;;;;;36.45;22.95;;;23.40;99.90;;;;;;4183083;28;20210;-86
2022/08/04 02:03:03;;;;;;;30.20;19.63;;;23.30;99.90;;;;;;4199860;28;20202;-87
2022/08/04 02:05:04;;;;;;;35.33;21.30;;;23.30;99.90;;;;;;4167439;28;20192;-87
2022/08/04 02:07:24;;;;;;;31.73;17.63;;;23.30;99.90;;;;;;4183955;28;20160;-90
2022/08/04 02:10:03;;;;;;;31.40;14.80;;;23.40;99.90;;;;;;4200368;28;20175;-87
2022/08/04 02:12:13;;;;;;;32.42;14.98;;;23.40;99.90;;;;;;4199454;28;20198;-87
2022/08/04 02:14:44;;;;;;;20.30;9.98;;;23.40;99.90;;;;;;4200030;28;20670;-87
2022/08/04 02:16:48;;;;;;;19.25;8.75;;;23.40;99.90;;;;;;4182592;28;20194;-87
2022/08/04 02:19:08;;;;;;;18.00;8.35;;;23.20;99.90;;;;;;4183230;28;20697;-93
2022/08/04 02:21:09;;;;;;;16.77;6.53;;;23.10;99.90;;;;;;4199332;28;20361;-87
2022/08/04 02:23:18;;;;;;;15.13;4.90;;;23.10;99.90;;;;;;4183299;28;20556;-87
2022/08/04 02:25:27;;;;;;;9.65;4.10;;;23.10;99.90;;;;;;4200489;28;20562;-87
2022/08/04 02:27:31;;;;;;;18.67;5.82;;;23.10;99.90;;;;;;4182288;28;20225;-87
2022/08/04 02:29:57;;;;;;;10.30;3.60;;;23.20;99.90;;;;;;4182410;28;20676;-87
2022/08/04 02:32:26;;;;;;;13.88;4.55;;;23.20;99.90;;;;;;4199265;28;20659;-87
2022/08/04 02:35:02;;;;;;;11.80;4.40;;;23.00;99.90;;;;;;4200873;28;20179;-87
2022/08/04 02:37:03;;;;;;;9.13;3.50;;;22.90;99.90;;;;;;4182358;28;20244;-87
2022/08/04 02:39:06;;;;;;;10.88;3.42;;;22.90;99.90;;;;;;4182664;28;20195;-87
2022/08/04 02:41:10;;;;;;;9.32;3.30;;;22.80;99.90;;;;;;4198793;28;20206;-87
2022/08/04 02:43:11;;;;;;;12.73;3.80;;;22.80;99.90;;;;;;4198548;28;20198;-87
2022/08/04 02:45:13;;;;;;;10.98;2.90;;;22.80;99.90;;;;;;4182125;28;21054;-87
2022/08/04 02:47:18;;;;;;;8.98;3.30;;;22.80;99.90;;;;;;4199488;28;20173;-87
2022/08/04 02:49:21;;;;;;;8.18;3.00;;;22.80;99.90;;;;;;4199561;28;20179;-87
2022/08/04 02:51:26;;;;;;;7.88;2.95;;;22.80;99.90;;;;;;4199149;28;20206;-87
2022/08/04 02:53:29;;;;;;;6.47;2.70;;;22.60;99.90;;;;;;4198326;28;20278;-87
2022/08/04 02:55:31;;;;;;;8.50;2.88;;;22.50;99.90;;;;;;4184517;28;20172;-86
2022/08/04 02:57:34;;;;;;;8.68;3.10;;;22.60;99.90;;;;;;4198991;28;20659;-86
2022/08/04 03:00:14;;;;;;;10.57;2.67;;;22.60;99.90;;;;;;4182044;28;20171;-87
2022/08/04 03:02:21;;;;;;;11.02;3.03;;;22.70;99.90;;;;;;4181949;28;20213;-92
2022/08/04 03:04:41;;;;;;;9.55;2.75;;;22.60;99.90;;;;;;4181979;28;20164;-87
2022/08/04 03:07:10;;;;;;;5.63;2.50;;;22.60;99.90;;;;;;4182402;28;20179;-87
2022/08/04 03:09:43;;;;;;;8.77;2.38;;;22.60;99.90;;;;;;4181736;28;20278;-87
2022/08/04 03:12:25;;;;;;;6.03;2.80;;;22.60;99.90;;;;;;4198460;28;20163;-87
2022/08/04 03:14:34;;;;;;;13.43;2.63;;;22.60;99.90;;;;;;4182364;28;20182;-86
2022/08/04 03:16:57;;;;;;;9.05;2.80;;;22.50;99.90;;;;;;4198502;28;20224;-87
2022/08/04 03:19:14;;;;;;;9.02;2.65;;;22.50;99.90;;;;;;4181764;28;20171;-94
2022/08/04 03:21:36;;;;;;;10.43;3.03;;;22.60;99.90;;;;;;4182084;28;20298;-86
2022/08/04 03:23:42;;;;;;;10.25;3.35;;;22.50;99.90;;;;;;4198318;28;20694;-88
2022/08/04 03:26:12;;;;;;;10.70;2.78;;;22.30;99.90;;;;;;4182694;28;20258;-87
2022/08/04 03:28:15;;;;;;;11.40;2.80;;;22.30;99.90;;;;;;4132179;28;20730;-96
2022/08/04 03:30:26;;;;;;;7.28;2.45;;;22.30;99.90;;;;;;4180241;28;20180;-87
2022/08/04 03:32:48;;;;;;;10.30;2.83;;;22.30;99.90;;;;;;4185699;28;20191;-93
2022/08/04 03:35:07;;;;;;;11.65;2.78;;;22.40;99.90;;;;;;4203316;28;20566;-94
2022/08/04 03:37:22;;;;;;;9.15;2.60;;;22.30;99.90;;;;;;4205335;28;20163;-94
2022/08/04 03:39:47;;;;;;;7.35;2.70;;;22.20;99.90;;;;;;4219786;28;20261;-87
2022/08/04 03:42:22;;;;;;;6.13;2.40;;;22.20;99.90;;;;;;4197847;28;20261;-87
2022/08/04 03:44:48;;;;;;;9.50;2.47;;;22.30;99.90;;;;;;4182337;28;20171;-87
2022/08/04 03:47:13;;;;;;;16.92;2.97;;;22.30;99.90;;;;;;4182810;28;20699;-87
2022/08/04 03:49:38;;;;;;;7.25;2.63;;;22.20;99.90;;;;;;4185816;28;20175;-96
2022/08/04 03:54:26;;;;;;;8.65;3.30;;;22.40;99.90;;;;;;4198527;28;20209;-88
2022/08/04 03:56:48;;;;;;;9.88;2.83;;;22.40;99.90;;;;;;4182543;28;20171;-87
2022/08/04 03:59:07;;;;;;;11.55;3.13;;;22.40;99.90;;;;;;4183759;28;20207;-95
2022/08/04 04:01:33;;;;;;;10.05;3.35;;;22.40;99.90;;;;;;4198854;28;20208;-86
2022/08/04 04:04:24;;;;;;;10.57;3.22;;;22.40;99.90;;;;;;4181550;28;20184;-87
2022/08/04 04:06:46;;;;;;;12.82;3.00;;;22.40;99.90;;;;;;4143632;28;20407;-94
2022/08/04 04:09:05;;;;;;;8.57;2.90;;;22.30;99.90;;;;;;4202762;28;20635;-96
2022/08/04 04:11:37;;;;;;;9.38;2.65;;;22.30;99.90;;;;;;4202851;28;20174;-87
2022/08/04 04:13:59;;;;;;;11.38;2.78;;;22.20;99.90;;;;;;4190474;28;20207;-95
2022/08/04 04:16:12;;;;;;;7.57;2.63;;;22.20;99.90;;;;;;4206860;28;20190;-95
2022/08/04 04:18:26;;;;;;;6.90;2.80;;;22.00;99.90;;;;;;4205109;28;20174;-92
2022/08/04 04:21:06;;;;;;;7.45;2.80;;;21.90;99.90;;;;;;4206302;28;20205;-92
2022/08/04 04:23:44;;;;;;;8.05;2.70;;;21.90;99.90;;;;;;4207240;28;20329;-96
2022/08/04 04:26:15;;;;;;;7.53;3.15;;;21.90;99.90;;;;;;4204997;28;20265;-87
2022/08/04 04:28:34;;;;;;;11.18;3.13;;;22.00;99.90;;;;;;4190755;28;20206;-87
2022/08/04 04:30:59;;;;;;;9.02;3.08;;;21.90;99.90;;;;;;4202371;28;20262;-87
2022/08/04 04:33:07;;;;;;;10.27;3.00;;;22.00;99.90;;;;;;4200968;28;20199;-88
2022/08/04 04:35:20;;;;;;;6.35;2.75;;;22.00;99.90;;;;;;4185234;28;20171;-87
2022/08/04 04:37:53;;;;;;;10.27;2.72;;;22.00;99.90;;;;;;4200761;28;20210;-86
2022/08/04 04:40:21;;;;;;;8.18;3.15;;;22.10;99.90;;;;;;4184434;28;20176;-87
2022/08/04 04:42:44;;;;;;;8.80;3.05;;;22.10;99.90;;;;;;4184668;28;20771;-87
2022/08/04 04:44:57;;;;;;;14.75;4.03;;;22.00;99.90;;;;;;4200809;28;20167;-87
2022/08/04 04:47:08;;;;;;;8.68;2.83;;;22.50;99.90;;;;;;4218868;28;20173;-87
2022/08/04 04:49:53;;;;;;;10.73;2.95;;;22.20;99.90;;;;;;4201253;28;20182;-87
2022/08/04 04:52:12;;;;;;;10.55;3.10;;;22.20;99.90;;;;;;4135216;28;20185;-87
2022/08/04 04:54:50;;;;;;;7.68;3.05;;;22.00;99.90;;;;;;4186308;28;20189;-87
2022/08/04 04:57:06;;;;;;;6.90;2.50;;;22.00;99.90;;;;;;4134213;28;20209;-87
2022/08/04 04:59:14;;;;;;;5.47;2.88;;;21.90;99.90;;;;;;4184430;28;20214;-87
2022/08/04 05:01:23;;;;;;;6.60;2.47;;;21.80;99.90;;;;;;4184929;28;20569;-87
2022/08/04 05:04:07;;;;;;;11.23;2.63;;;21.90;99.90;;;;;;4201132;28;20186;-87
2022/08/04 05:06:27;;;;;;;13.38;2.70;;;22.10;99.90;;;;;;4201441;28;20210;-87
2022/08/04 05:09:01;;;;;;;14.10;3.13;;;22.20;99.90;;;;;;4200134;28;20174;-87
2022/08/04 05:11:29;;;;;;;8.02;2.53;;;22.30;99.90;;;;;;4200918;28;20555;-87
2022/08/04 05:13:37;;;;;;;8.35;2.40;;;22.20;99.90;;;;;;4200179;28;20281;-87
2022/08/04 05:15:42;;;;;;;5.15;2.53;;;22.20;99.90;;;;;;4216932;28;20660;-93
2022/08/04 05:17:48;;;;;;;8.77;2.55;;;22.20;99.90;;;;;;4200202;28;20178;-87
2022/08/04 05:19:59;;;;;;;12.18;2.67;;;22.20;99.90;;;;;;4199915;28;20171;-87
2022/08/04 05:22:10;;;;;;;9.07;2.25;;;22.20;99.90;;;;;;4199291;28;20203;-87
2022/08/04 05:24:16;;;;;;;11.65;2.25;;;22.20;99.90;;;;;;4199575;28;20630;-88
2022/08/04 05:26:24;;;;;;;11.23;2.72;;;22.20;99.90;;;;;;4199973;28;20205;-86
2022/08/04 05:28:31;;;;;;;7.78;2.75;;;22.20;99.90;;;;;;4200117;28;20264;-87
2022/08/04 05:30:47;;;;;;;9.23;2.85;;;22.20;99.90;;;;;;4200041;28;20245;-87
2022/08/04 05:32:56;;;;;;;7.05;2.30;;;22.10;99.90;;;;;;4200033;28;20206;-87
2022/08/04 05:35:06;;;;;;;13.35;2.50;;;22.30;99.90;;;;;;4199894;28;20178;-87
2022/08/04 05:37:15;;;;;;;8.20;2.45;;;22.30;99.90;;;;;;4199719;28;20175;-87
2022/08/04 05:39:23;;;;;;;7.88;2.88;;;22.30;99.90;;;;;;4183170;28;20172;-87
2022/08/04 05:41:27;;;;;;;6.05;2.50;;;22.30;99.90;;;;;;4199640;28;20206;-87
2022/08/04 05:43:29;;;;;;;9.95;2.38;;;22.50;99.90;;;;;;4183211;28;20253;-87
2022/08/04 05:45:30;;;;;;;9.23;2.35;;;22.60;99.90;;;;;;4183489;28;20229;-89
2022/08/04 05:47:33;;;;;;;12.52;2.60;;;22.80;99.90;;;;;;4216682;28;20566;-87
2022/08/04 05:49:36;;;;;;;8.73;2.22;;;23.00;99.90;;;;;;4183271;28;20160;-87
2022/08/04 05:51:37;;;;;;;7.78;3.08;;;23.10;99.90;;;;;;4183316;28;20184;-87
2022/08/04 05:53:43;;;;;;;9.18;2.97;;;23.10;99.90;;;;;;4183823;28;20537;-87
2022/08/04 05:55:44;;;;;;;6.85;2.67;;;23.30;99.90;;;;;;4183183;28;20598;-87
2022/08/04 05:57:47;;;;;;;11.18;3.33;;;23.50;99.90;;;;;;4199440;28;20201;-87
2022/08/04 05:59:49;;;;;;;11.15;2.70;;;23.50;99.90;;;;;;4183681;28;20237;-87
2022/08/04 06:01:54;;;;;;;8.93;3.20;;;23.50;99.90;;;;;;4199850;28;20301;-89
2022/08/04 06:03:57;;;;;;;11.45;3.13;;;23.50;99.90;;;;;;4199890;28;20175;-88
2022/08/04 06:05:58;;;;;;;10.60;3.13;;;23.60;99.90;;;;;;4199716;28;20195;-94
2022/08/04 06:07:59;;;;;;;20.38;3.65;;;23.70;99.90;;;;;;4199361;28;20179;-87
2022/08/04 06:10:00;;;;;;;8.38;3.10;;;23.70;99.90;;;;;;4182560;28;20494;-90
2022/08/04 06:12:06;;;;;;;9.75;2.97;;;23.40;99.90;;;;;;4183397;28;20338;-87
2022/08/04 06:14:11;;;;;;;15.55;3.53;;;23.20;99.90;;;;;;4182682;28;20616;-88
2022/08/04 06:16:15;;;;;;;14.07;3.85;;;23.30;99.90;;;;;;4199046;28;20225;-87
2022/08/04 06:18:17;;;;;;;10.05;3.72;;;23.20;99.90;;;;;;4199215;28;20175;-87
2022/08/04 06:20:19;;;;;;;10.65;3.30;;;23.30;99.90;;;;;;4182961;28;20226;-87
2022/08/04 06:22:22;;;;;;;13.00;3.47;;;23.40;99.90;;;;;;4183891;28;20207;-87
2022/08/04 06:24:25;;;;;;;9.45;2.90;;;23.60;99.90;;;;;;4199501;28;20213;-87
2022/08/04 06:26:29;;;;;;;8.35;2.92;;;23.60;99.90;;;;;;4199524;28;20238;-87
2022/08/04 06:28:30;;;;;;;9.38;3.15;;;23.60;99.90;;;;;;4199206;28;20198;-87
2022/08/04 06:30:32;;;;;;;8.25;3.50;;;23.50;99.90;;;;;;4182443;28;20207;-88
2022/08/04 06:32:46;;;;;;;9.77;3.28;;;23.40;99.90;;;;;;4198741;28;20191;-89
2022/08/04 06:34:47;;;;;;;10.10;3.35;;;23.60;99.90;;;;;;4183044;28;20178;-88
2022/08/04 06:36:48;;;;;;;8.02;3.20;;;23.50;99.90;;;;;;4182294;28;20644;-87
2022/08/04 06:38:50;;;;;;;9.10;3.13;;;23.50;99.90;;;;;;4182634;28;20251;-89
2022/08/04 06:40:52;;;;;;;10.75;3.22;;;23.40;99.90;;;;;;4182428;28;20199;-87
2022/08/04 06:42:53;;;;;;;14.55;3.80;;;23.40;99.90;;;;;;4198915;28;20194;-87
2022/08/04 06:44:57;;;;;;;9.82;3.42;;;23.40;99.90;;;;;;4182312;28;20270;-88
2022/08/04 06:46:58;;;;;;;10.35;3.90;;;23.70;99.90;;;;;;4199187;28;20183;-93
2022/08/04 06:49:00;;;;;;;11.57;3.40;;;23.80;99.90;;;;;;4199245;28;20178;-87
2022/08/04 06:51:01;;;;;;;8.65;3.88;;;23.60;99.90;;;;;;4182586;28;20175;-95
2022/08/04 06:53:03;;;;;;;13.27;3.75;;;23.60;99.90;;;;;;4198824;28;20199;-88
2022/08/04 06:55:05;;;;;;;13.18;3.70;;;23.50;99.90;;;;;;4181854;28;20305;-93
2022/08/04 06:57:07;;;;;;;9.60;4.13;;;23.40;99.90;;;;;;4199544;28;20182;-87
2022/08/04 06:59:09;;;;;;;9.45;4.38;;;23.60;99.90;;;;;;4198637;28;20224;-88
2022/08/04 07:01:12;;;;;;;9.02;4.20;;;24.10;99.90;;;;;;4198775;28;20211;-89
2022/08/04 07:03:14;;;;;;;15.60;4.70;;;24.40;99.90;;;;;;4181665;28;20191;-88
2022/08/04 07:05:15;;;;;;;12.98;3.63;;;24.80;99.90;;;;;;4198119;28;20291;-87
2022/08/04 07:07:17;;;;;;;14.63;3.72;;;25.30;99.90;;;;;;4198483;28;20221;-89
2022/08/04 07:09:18;;;;;;;14.65;4.43;;;25.40;99.90;;;;;;4198220;28;20563;-89
2022/08/04 07:11:20;;;;;;;8.88;4.00;;;25.30;99.90;;;;;;4181962;28;20187;-89
2022/08/04 07:13:22;;;;;;;14.52;4.57;;;25.40;99.90;;;;;;4181683;28;20275;-88
2022/08/04 07:15:24;;;;;;;13.60;4.72;;;25.40;99.90;;;;;;4198668;28;20171;-89
2022/08/04 07:17:27;;;;;;;11.73;5.63;;;25.00;99.90;;;;;;4198160;28;20190;-87
2022/08/04 07:19:28;;;;;;;16.75;5.10;;;25.10;99.90;;;;;;4182310;28;20160;-91
2022/08/04 07:21:29;;;;;;;10.25;4.90;;;25.20;99.90;;;;;;4182016;28;20210;-95
2022/08/04 07:23:30;;;;;;;23.80;5.80;;;25.10;99.90;;;;;;4198526;28;20199;-90
2022/08/04 07:25:32;;;;;;;18.50;6.20;;;24.90;99.90;;;;;;4182056;28;20191;-88
2022/08/04 07:27:33;;;;;;;14.07;5.82;;;24.70;99.90;;;;;;4198160;28;20710;-87
2022/08/04 07:29:35;;;;;;;9.95;5.20;;;24.40;99.90;;;;;;4182149;28;20171;-87
2022/08/04 07:31:36;;;;;;;13.50;5.97;;;24.40;99.90;;;;;;4198673;28;20252;-87
2022/08/04 07:33:39;;;;;;;19.75;6.22;;;24.50;99.90;;;;;;4215034;28;20198;-89
2022/08/04 07:35:40;;;;;;;12.23;5.95;;;24.10;99.90;;;;;;4181936;28;20172;-86
2022/08/04 07:37:41;;;;;;;14.13;6.05;;;24.10;99.90;;;;;;4182169;28;20240;-88
2022/08/04 07:39:42;;;;;;;15.13;5.85;;;24.30;99.90;;;;;;4182391;28;20199;-88
2022/08/04 07:41:43;;;;;;;15.35;5.40;;;24.20;99.90;;;;;;4198544;28;20202;-88
2022/08/04 07:43:45;;;;;;;12.73;5.43;;;24.40;99.90;;;;;;4182075;28;20695;-87
2022/08/04 07:45:46;;;;;;;14.60;5.68;;;24.30;99.90;;;;;;4181998;28;20163;-87
2022/08/04 07:47:47;;;;;;;11.30;5.50;;;24.40;99.90;;;;;;4181923;28;20242;-88
2022/08/04 07:49:48;;;;;;;13.07;5.78;;;24.20;99.90;;;;;;4182846;28;20190;-94
2022/08/04 07:51:49;;;;;;;14.95;6.70;;;24.30;99.90;;;;;;4198962;28;20186;-90
2022/08/04 07:53:50;;;;;;;14.40;7.00;;;24.40;99.90;;;;;;4198544;28;20255;-90
2022/08/04 07:55:51;;;;;;;17.65;7.30;;;24.50;99.90;;;;;;4181643;28;20168;-86
2022/08/04 07:57:52;;;;;;;13.77;8.25;;;24.50;99.90;;;;;;4182172;28;20244;-87
2022/08/04 07:59:53;;;;;;;15.45;9.27;;;24.50;99.90;;;;;;4182381;28;20164;-90
2022/08/04 08:01:57;;;;;;;15.38;8.90;;;24.60;99.90;;;;;;4181463;28;20587;-89
2022/08/04 08:03:59;;;;;;;20.13;11.48;;;24.40;99.90;;;;;;4181270;28;20172;-87
2022/08/04 08:06:00;;;;;;;19.15;11.75;;;24.40;99.90;;;;;;4197911;28;20163;-92
2022/08/04 08:08:00;;;;;;;22.25;12.50;;;24.40;99.90;;;;;;4181331;28;20183;-87
2022/08/04 08:10:01;;;;;;;19.25;11.52;;;24.20;99.90;;;;;;4181548;28;20202;-89
2022/08/04 08:12:02;;;;;;;18.85;12.35;;;24.10;99.90;;;;;;4181302;28;20167;-95
2022/08/04 08:14:03;;;;;;;22.90;13.15;;;24.00;99.90;;;;;;4181526;28;20233;-95
2022/08/04 08:16:04;;;;;;;26.35;13.02;;;23.80;99.90;;;;;;4181302;28;20215;-88
2022/08/04 08:18:05;;;;;;;22.27;13.82;;;23.80;99.90;;;;;;4181545;28;20175;-88
2022/08/04 08:20:07;;;;;;;27.77;14.35;;;23.70;99.90;;;;;;4198006;28;20662;-87
2022/08/04 08:22:10;;;;;;;25.35;14.63;;;23.30;99.90;;;;;;4197580;28;20214;-88
2022/08/04 08:24:11;;;;;;;22.70;14.60;;;23.30;99.90;;;;;;4181162;28;20171;-87
2022/08/04 08:26:12;;;;;;;23.42;15.07;;;23.10;99.90;;;;;;4180901;28;20171;-87
2022/08/04 08:28:14;;;;;;;28.73;15.15;;;22.90;99.90;;;;;;4181261;28;20164;-87
2022/08/04 08:30:15;;;;;;;23.83;15.02;;;22.90;99.90;;;;;;4185253;28;20209;-87
2022/08/04 08:32:16;;;;;;;22.92;14.25;;;22.80;99.90;;;;;;4183101;28;20294;-86
2022/08/04 08:34:17;;;;;;;24.08;14.00;;;22.70;99.90;;;;;;4180863;28;20223;-89
2022/08/04 08:36:26;;;;;;;24.40;14.82;;;22.70;99.90;;;;;;4180744;28;20249;-87
2022/08/04 08:38:54;;;;;;;27.80;14.57;;;22.80;99.90;;;;;;4197438;28;20658;-87
2022/08/04 08:41:33;;;;;;;25.75;16.00;;;22.90;99.90;;;;;;4197394;28;20216;-88
2022/08/04 08:43:48;;;;;;;25.45;15.10;;;22.90;99.90;;;;;;4199850;28;20195;-87
2022/08/04 08:46:30;;;;;;;26.90;14.80;;;23.20;99.90;;;;;;4199685;28;20183;-88
2022/08/04 08:48:55;;;;;;;25.67;14.88;;;23.30;99.90;;;;;;4198651;28;20174;-88
2022/08/04 08:51:23;;;;;;;25.88;14.20;;;22.90;99.90;;;;;;4198359;28;20532;-86
2022/08/04 08:53:33;;;;;;;23.05;14.75;;;23.00;99.90;;;;;;4197349;28;20277;-87
2022/08/04 08:55:55;;;;;;;24.58;14.73;;;22.90;99.90;;;;;;4197437;28;20182;-88
2022/08/04 08:58:32;;;;;;;30.40;15.45;;;22.90;99.90;;;;;;4180706;28;20713;-88
2022/08/04 09:00:50;;;;;;;22.80;14.50;;;22.90;99.90;;;;;;4200324;28;20178;-87
2022/08/04 09:03:10;;;;;;;25.08;15.07;;;23.20;99.90;;;;;;4183965;28;20337;-88
2022/08/04 09:05:49;;;;;;;25.30;14.60;;;22.80;99.90;;;;;;4184164;28;20183;-92
2022/08/04 09:08:14;;;;;;;25.00;15.18;;;22.70;99.90;;;;;;4183831;28;20540;-89
2022/08/04 09:10:40;;;;;;;27.90;15.50;;;22.30;99.90;;;;;;4200189;28;20190;-88
2022/08/04 09:13:03;;;;;;;24.85;15.48;;;22.30;99.90;;;;;;4200133;28;20199;-88
2022/08/04 09:15:15;;;;;;;27.80;16.85;;;22.30;99.90;;;;;;4200177;28;20547;-89
2022/08/04 09:17:29;;;;;;;29.08;14.93;;;22.70;99.90;;;;;;4200080;28;20184;-89
2022/08/04 09:19:35;;;;;;;28.63;16.20;;;22.80;99.90;;;;;;4203614;28;20177;-92
2022/08/04 09:21:48;;;;;;;27.00;16.45;;;22.60;99.90;;;;;;4184930;28;20207;-88
2022/08/04 09:24:15;;;;;;;26.75;15.10;;;22.60;99.90;;;;;;4185721;28;20171;-88
2022/08/04 09:26:33;;;;;;;24.30;15.90;;;22.60;99.90;;;;;;4188829;28;20192;-88
2022/08/04 09:29:05;;;;;;;23.83;15.35;;;22.50;99.90;;;;;;4186805;28;20171;-89
2022/08/04 09:31:11;;;;;;;28.58;16.00;;;22.80;99.90;;;;;;4184234;28;20176;-89
2022/08/04 09:33:36;;;;;;;24.27;14.90;;;23.00;99.90;;;;;;4187321;28;20194;-88
2022/08/04 09:35:47;;;;;;;25.75;15.80;;;22.90;99.90;;;;;;4187677;28;20241;-88
2022/08/04 09:38:15;;;;;;;23.98;14.10;;;23.00;99.90;;;;;;4199773;28;20659;-88
2022/08/04 09:40:39;;;;;;;25.75;14.73;;;23.00;99.90;;;;;;4199752;28;20183;-88
2022/08/04 09:42:56;;;;;;;22.95;14.18;;;23.00;99.90;;;;;;4199743;28;20217;-88
2022/08/04 09:45:02;;;;;;;24.42;14.30;;;23.00;99.90;;;;;;4199703;28;20271;-89
2022/08/04 09:47:19;;;;;;;23.35;13.55;;;23.10;99.90;;;;;;4199643;28;20682;-87
2022/08/04 09:49:35;;;;;;;23.33;13.98;;;23.50;99.90;;;;;;4183346;28;20182;-88
2022/08/04 09:51:49;;;;;;;27.02;15.07;;;23.90;99.90;;;;;;4183128;28;20167;-94
2022/08/04 09:54:16;;;;;;;23.88;14.65;;;24.00;99.90;;;;;;4182851;28;20273;-88
2022/08/04 09:56:16;;;;;;;22.92;14.45;;;23.80;99.90;;;;;;4199563;28;20174;-92
2022/08/04 09:58:39;;;;;;;23.52;14.60;;;24.00;99.90;;;;;;4183034;28;20590;-88
2022/08/04 10:00:46;;;;;;;27.63;14.52;;;24.20;99.90;;;;;;4183450;28;20167;-88
2022/08/04 10:02:54;;;;;;;19.92;13.50;;;24.70;99.90;;;;;;4183425;28;20202;-89
2022/08/04 10:04:58;;;;;;;22.80;13.70;;;24.90;99.90;;;;;;4184140;28;20167;-92
2022/08/04 10:07:40;;;;;;;20.08;13.02;;;25.00;99.90;;;;;;4183579;28;20222;-91
2022/08/04 10:10:05;;;;;;;18.70;11.75;;;25.60;99.90;;;;;;4180214;28;20179;-89
2022/08/04 10:12:37;;;;;;;18.88;12.20;;;26.70;99.90;;;;;;4215941;28;20662;-89
2022/08/04 10:14:53;;;;;;;16.23;11.68;;;27.40;99.90;;;;;;4199717;28;20190;-90
2022/08/04 10:17:24;;;;;;;15.35;11.10;;;27.60;99.90;;;;;;4182474;28;20559;-89
2022/08/04 10:19:27;;;;;;;16.42;12.10;;;27.50;99.90;;;;;;4153217;28;20194;-88
2022/08/04 10:21:46;;;;;;;15.10;11.68;;;27.80;99.90;;;;;;4198926;28;20285;-88
2022/08/04 10:24:24;;;;;;;21.23;12.15;;;28.50;99.90;;;;;;4198896;28;20232;-92
2022/08/04 10:26:44;;;;;;;16.30;10.98;;;28.30;99.90;;;;;;4198888;28;20171;-88
2022/08/04 10:28:59;;;;;;;14.27;10.55;;;27.80;99.90;;;;;;4199092;28;20202;-89
2022/08/04 10:31:08;;;;;;;19.13;11.05;;;27.90;99.90;;;;;;4215444;28;20170;-90
2022/08/04 10:33:18;;;;;;;15.55;10.32;;;28.10;99.90;;;;;;4199099;28;20327;-90
2022/08/04 10:35:22;;;;;;;13.70;10.00;;;27.60;99.90;;;;;;4198846;28;20182;-93
2022/08/04 10:37:29;;;;;;;15.40;9.15;;;27.90;99.90;;;;;;4215804;28;20552;-89
2022/08/04 10:40:35;;;;;;;19.40;10.13;;;27.90;99.90;;;;;;4199227;28;20209;-91
2022/08/04 10:42:21;;;;;;;26.00;12.80;;;28.50;99.90;;;;;;4214404;28;20221;-89
2022/08/04 10:44:46;;;;;;;16.90;11.45;;;28.20;99.90;;;;;;4199289;28;20167;-90
2022/08/04 10:46:53;;;;;;;17.00;10.07;;;27.80;99.90;;;;;;4199355;28;20178;-89
2022/08/04 10:49:01;;;;;;;19.15;9.95;;;27.80;99.90;;;;;;4182374;28;20270;-88
2022/08/04 10:51:16;;;;;;;19.15;10.13;;;27.30;99.90;;;;;;4182431;28;20230;-91
2022/08/04 10:53:21;;;;;;;16.38;10.57;;;27.10;99.90;;;;;;4199158;28;20202;-89
2022/08/04 10:55:37;;;;;;;15.27;9.40;;;26.90;99.90;;;;;;4199157;28;20174;-90
2022/08/04 10:58:00;;;;;;;14.90;9.05;;;27.30;99.90;;;;;;4183697;28;20186;-90
2022/08/04 11:00:11;;;;;;;19.38;9.23;;;27.20;99.90;;;;;;4198827;28;20175;-89
2022/08/04 11:02:17;;;;;;;13.25;9.60;;;26.90;99.90;;;;;;4200092;28;20601;-89
2022/08/04 11:04:30;;;;;;;13.25;8.20;;;27.00;99.90;;;;;;4201207;28;20277;-89
2022/08/04 11:06:32;;;;;;;12.05;8.38;;;26.70;99.90;;;;;;4183265;28;20206;-90
2022/08/04 11:08:41;;;;;;;11.20;7.25;;;26.70;99.90;;;;;;4198577;28;20264;-89
2022/08/04 11:11:05;;;;;;;13.13;8.63;;;26.60;99.90;;;;;;4198477;28;20174;-89
2022/08/04 11:13:10;;;;;;;14.13;8.65;;;26.70;99.90;;;;;;4181613;28;20591;-88
2022/08/04 11:15:19;;;;;;;12.57;8.88;;;26.80;99.90;;;;;;4198588;28;20634;-88
2022/08/04 11:17:43;;;;;;;14.88;9.00;;;26.90;99.90;;;;;;4181871;28;20214;-88
2022/08/04 11:20:15;;;;;;;16.17;8.60;;;26.80;99.90;;;;;;4181191;28;20626;-88
2022/08/04 11:22:21;;;;;;;16.90;8.80;;;26.80;99.90;;;;;;4197795;28;20214;-92
2022/08/04 11:24:44;;;;;;;15.65;8.38;;;27.00;99.90;;;;;;4181524;28;20172;-88